Aérodrome :







RETROUVEZ-NOUS SUR...

 
LOGIN :

S'inscrire | Disclaimer

   EN    FR    IT 

 









Légende :    VFR   VFR Marginal   IFR   IFR Intensif   IFR Très Intensif
Visi : 
Plafond : 
>= 8 km
>= 3000ft
5 à 8 km
1000 à 3000 ft
1500m à 5 km
500 à 1000 ft
800 à 1500m
200 à 500 ft
< 800m
< 200 ft
Symboles :   Orages  Brouillard  Fortes neiges  Fortes précipitations  Vent > 20 kt






- Altitude de l'aérodrome : 110 ft
- Code IATA : YFB


CYFB - Iqaluit

DERNIER METAR :
  • 151000Z 04003KT 15SM -SN BKN034 M17/M20 A2998 RMK SC7 SLP158

METARs EXPIRÉS :
  • 150900Z 36003KT 15SM -SN BKN034 M18/M22 A2999 RMK SC7 SLP161
  • 150835Z 36004KT 15SM -SN BKN035 M19/M23 A2999 RMK SC7 SLP162
  • 150800Z 36004KT 15SM SCT038 M20/M24 A3000 RMK SC3 SLP165

TAF TAF CYFB
Valide du 15 à 06h jusqu'au 16 à 06h UTC


150538Z 1506/1606 35005KT P6SM FEW020 BKN040
TEMPO 1506/1515 5SM -SN BKN020
FM151500 01005KT P6SM FEW010 SCT025
BECMG 1515/1517 35010KT
FM160300 36012KT P6SM -SN BKN030
TEMPO 1603/1606 4SM -SN BKN020 OVC030 RMK NXT FCST BY 151200Z



MET'MAP, la Météo Aéronautique d'un coup d'oeil ! - Copyright ORBIFLY Décembre 2007 - Disclaimer

ORBIFLY MET'MAP TEAM :

Programmation & Développement : Alexandra Zaïnal
Sur une idée originale de : Baudouin d'Aumeries
Assistance à la programmation : Marc-Olivier Méhu
Soutien technique & logistique : Manuel Goepfert

Contact : metmap@orbifly.com




SOURCES & CREDITS :

   NOAA